sensor_id;sensor_type;location;lat;lon;timestamp;pressure;altitude;pressure_sealevel;temperature;humidity
75536;BME280;64119;52.070;20.804;2022-12-18T00:01:32;101820.54;;;-4.10;89.22
75536;BME280;64119;52.070;20.804;2022-12-18T00:04:03;101819.73;;;-4.07;88.94
75536;BME280;64119;52.070;20.804;2022-12-18T00:06:32;101825.23;;;-4.06;88.70
75536;BME280;64119;52.070;20.804;2022-12-18T00:09:03;101828.75;;;-4.08;88.78
75536;BME280;64119;52.070;20.804;2022-12-18T00:11:31;101833.07;;;-4.08;88.68
75536;BME280;64119;52.070;20.804;2022-12-18T00:13:59;101834.28;;;-4.08;88.77
75536;BME280;64119;52.070;20.804;2022-12-18T00:16:28;101835.13;;;-4.08;88.49
75536;BME280;64119;52.070;20.804;2022-12-18T00:18:57;101837.49;;;-4.10;88.59
75536;BME280;64119;52.070;20.804;2022-12-18T00:21:26;101840.38;;;-4.09;88.89
75536;BME280;64119;52.070;20.804;2022-12-18T00:23:55;101841.80;;;-4.10;88.96
75536;BME280;64119;52.070;20.804;2022-12-18T00:26:33;101839.45;;;-4.07;88.98
75536;BME280;64119;52.070;20.804;2022-12-18T00:29:04;101835.58;;;-4.06;88.93
75536;BME280;64119;52.070;20.804;2022-12-18T00:31:33;101835.08;;;-4.06;88.82
75536;BME280;64119;52.070;20.804;2022-12-18T00:34:02;101840.30;;;-4.02;88.83
75536;BME280;64119;52.070;20.804;2022-12-18T00:36:32;101840.22;;;-4.01;88.44
75536;BME280;64119;52.070;20.804;2022-12-18T00:39:03;101842.68;;;-3.97;88.64
75536;BME280;64119;52.070;20.804;2022-12-18T00:41:31;101851.57;;;-3.95;88.39
75536;BME280;64119;52.070;20.804;2022-12-18T00:44:18;101856.38;;;-3.94;88.13
75536;BME280;64119;52.070;20.804;2022-12-18T00:46:47;101859.23;;;-3.96;88.17
75536;BME280;64119;52.070;20.804;2022-12-18T00:49:18;101860.80;;;-3.96;88.19
75536;BME280;64119;52.070;20.804;2022-12-18T00:51:47;101859.25;;;-3.97;88.48
75536;BME280;64119;52.070;20.804;2022-12-18T00:54:16;101866.09;;;-3.95;88.73
75536;BME280;64119;52.070;20.804;2022-12-18T00:56:44;101872.52;;;-3.91;88.58
75536;BME280;64119;52.070;20.804;2022-12-18T00:59:17;101871.21;;;-3.88;88.46
75536;BME280;64119;52.070;20.804;2022-12-18T01:01:45;101880.00;;;-3.84;88.74
75536;BME280;64119;52.070;20.804;2022-12-18T01:04:14;101880.48;;;-3.78;88.60
75536;BME280;64119;52.070;20.804;2022-12-18T01:06:45;101883.95;;;-3.75;88.33
75536;BME280;64119;52.070;20.804;2022-12-18T01:09:12;101890.75;;;-3.76;88.27
75536;BME280;64119;52.070;20.804;2022-12-18T01:11:40;101896.52;;;-3.77;88.41
75536;BME280;64119;52.070;20.804;2022-12-18T01:14:08;101898.31;;;-3.79;87.84
75536;BME280;64119;52.070;20.804;2022-12-18T01:16:37;101903.52;;;-3.80;88.30
75536;BME280;64119;52.070;20.804;2022-12-18T01:19:05;101905.31;;;-3.81;88.15
75536;BME280;64119;52.070;20.804;2022-12-18T01:21:33;101904.39;;;-3.80;88.58
75536;BME280;64119;52.070;20.804;2022-12-18T01:24:04;101909.58;;;-3.80;88.27
75536;BME280;64119;52.070;20.804;2022-12-18T01:26:32;101910.23;;;-3.79;88.38
75536;BME280;64119;52.070;20.804;2022-12-18T01:29:00;101910.86;;;-3.78;88.55
75536;BME280;64119;52.070;20.804;2022-12-18T01:31:30;101908.83;;;-3.74;88.58
75536;BME280;64119;52.070;20.804;2022-12-18T01:34:01;101910.52;;;-3.73;88.31
75536;BME280;64119;52.070;20.804;2022-12-18T01:36:34;101910.73;;;-3.74;88.51
75536;BME280;64119;52.070;20.804;2022-12-18T01:39:05;101912.57;;;-3.72;88.74
75536;BME280;64119;52.070;20.804;2022-12-18T01:41:34;101910.44;;;-3.71;88.96
75536;BME280;64119;52.070;20.804;2022-12-18T01:47:34;101922.55;;;-3.67;88.92
75536;BME280;64119;52.070;20.804;2022-12-18T01:50:08;101924.64;;;-3.63;88.87
75536;BME280;64119;52.070;20.804;2022-12-18T01:52:41;101925.39;;;-3.60;89.05
75536;BME280;64119;52.070;20.804;2022-12-18T01:55:11;101926.92;;;-3.60;88.94
75536;BME280;64119;52.070;20.804;2022-12-18T01:57:40;101931.80;;;-3.56;88.89
75536;BME280;64119;52.070;20.804;2022-12-18T02:00:14;101937.67;;;-3.56;88.76
75536;BME280;64119;52.070;20.804;2022-12-18T02:02:43;101943.64;;;-3.54;88.77
75536;BME280;64119;52.070;20.804;2022-12-18T02:05:18;101949.73;;;-3.51;88.82
75536;BME280;64119;52.070;20.804;2022-12-18T02:08:12;101953.89;;;-3.51;88.87
75536;BME280;64119;52.070;20.804;2022-12-18T02:13:36;101963.84;;;-3.49;88.38
75536;BME280;64119;52.070;20.804;2022-12-18T02:18:50;101969.73;;;-3.54;88.41
75536;BME280;64119;52.070;20.804;2022-12-18T02:22:11;101972.80;;;-3.53;88.14
75536;BME280;64119;52.070;20.804;2022-12-18T02:27:06;101984.23;;;-3.53;87.90
75536;BME280;64119;52.070;20.804;2022-12-18T02:29:49;101988.05;;;-3.53;88.07
75536;BME280;64119;52.070;20.804;2022-12-18T02:32:31;101989.70;;;-3.55;87.70
75536;BME280;64119;52.070;20.804;2022-12-18T02:35:02;101988.39;;;-3.58;87.80
75536;BME280;64119;52.070;20.804;2022-12-18T02:37:33;101991.61;;;-3.56;87.56
75536;BME280;64119;52.070;20.804;2022-12-18T02:40:03;101991.90;;;-3.59;87.04
75536;BME280;64119;52.070;20.804;2022-12-18T02:42:32;101995.83;;;-3.58;86.91
75536;BME280;64119;52.070;20.804;2022-12-18T02:45:00;102001.17;;;-3.58;87.15
75536;BME280;64119;52.070;20.804;2022-12-18T02:47:32;102003.33;;;-3.59;86.85
75536;BME280;64119;52.070;20.804;2022-12-18T02:52:41;102007.27;;;-3.59;86.70
75536;BME280;64119;52.070;20.804;2022-12-18T02:58:58;102017.77;;;-3.62;86.60
75536;BME280;64119;52.070;20.804;2022-12-18T03:01:57;102022.02;;;-3.60;86.76
75536;BME280;64119;52.070;20.804;2022-12-18T03:04:34;102029.46;;;-3.60;86.65
75536;BME280;64119;52.070;20.804;2022-12-18T03:07:10;102036.11;;;-3.58;86.83
75536;BME280;64119;52.070;20.804;2022-12-18T03:09:44;102042.45;;;-3.61;86.55
75536;BME280;64119;52.070;20.804;2022-12-18T03:12:22;102042.69;;;-3.63;86.60
75536;BME280;64119;52.070;20.804;2022-12-18T03:17:31;102059.41;;;-3.62;87.14
75536;BME280;64119;52.070;20.804;2022-12-18T03:20:07;102067.34;;;-3.60;86.90
75536;BME280;64119;52.070;20.804;2022-12-18T03:22:38;102063.84;;;-3.59;87.12
75536;BME280;64119;52.070;20.804;2022-12-18T03:25:08;102065.41;;;-3.64;86.96
75536;BME280;64119;52.070;20.804;2022-12-18T03:27:43;102065.25;;;-3.65;86.78
75536;BME280;64119;52.070;20.804;2022-12-18T03:30:17;102068.56;;;-3.61;87.12
75536;BME280;64119;52.070;20.804;2022-12-18T03:33:08;102069.11;;;-3.62;87.10
75536;BME280;64119;52.070;20.804;2022-12-18T03:35:40;102068.49;;;-3.64;86.75
75536;BME280;64119;52.070;20.804;2022-12-18T03:38:11;102065.94;;;-3.64;86.77
75536;BME280;64119;52.070;20.804;2022-12-18T03:40:59;102062.13;;;-3.65;86.85
75536;BME280;64119;52.070;20.804;2022-12-18T03:43:47;102066.84;;;-3.70;87.00
75536;BME280;64119;52.070;20.804;2022-12-18T03:49:08;102087.09;;;-3.76;86.76
75536;BME280;64119;52.070;20.804;2022-12-18T03:51:50;102083.41;;;-3.74;86.97
75536;BME280;64119;52.070;20.804;2022-12-18T03:54:20;102086.70;;;-3.75;86.65
75536;BME280;64119;52.070;20.804;2022-12-18T03:56:58;102089.24;;;-3.73;86.73
75536;BME280;64119;52.070;20.804;2022-12-18T03:59:29;102092.98;;;-3.71;86.72
75536;BME280;64119;52.070;20.804;2022-12-18T04:01:59;102101.83;;;-3.72;86.66
75536;BME280;64119;52.070;20.804;2022-12-18T04:04:27;102105.50;;;-3.74;86.68
75536;BME280;64119;52.070;20.804;2022-12-18T04:06:59;102107.58;;;-3.78;86.63
75536;BME280;64119;52.070;20.804;2022-12-18T04:09:27;102109.80;;;-3.77;86.84
75536;BME280;64119;52.070;20.804;2022-12-18T04:11:54;102110.04;;;-3.75;86.52
75536;BME280;64119;52.070;20.804;2022-12-18T04:14:23;102112.39;;;-3.77;86.76
75536;BME280;64119;52.070;20.804;2022-12-18T04:16:53;102116.90;;;-3.78;86.63
75536;BME280;64119;52.070;20.804;2022-12-18T04:19:24;102117.70;;;-3.76;86.45
75536;BME280;64119;52.070;20.804;2022-12-18T04:21:52;102122.71;;;-3.81;86.67
75536;BME280;64119;52.070;20.804;2022-12-18T04:24:20;102128.02;;;-3.79;86.56
75536;BME280;64119;52.070;20.804;2022-12-18T04:27:08;102130.55;;;-3.82;86.82
75536;BME280;64119;52.070;20.804;2022-12-18T04:29:42;102133.48;;;-3.82;86.57
75536;BME280;64119;52.070;20.804;2022-12-18T04:32:10;102135.50;;;-3.85;86.74
75536;BME280;64119;52.070;20.804;2022-12-18T04:34:39;102140.20;;;-3.86;86.67
75536;BME280;64119;52.070;20.804;2022-12-18T04:37:07;102146.98;;;-3.92;86.80
75536;BME280;64119;52.070;20.804;2022-12-18T04:39:35;102150.98;;;-3.93;86.69
75536;BME280;64119;52.070;20.804;2022-12-18T04:42:08;102154.36;;;-3.91;86.73
75536;BME280;64119;52.070;20.804;2022-12-18T04:44:36;102157.77;;;-3.95;87.11
75536;BME280;64119;52.070;20.804;2022-12-18T04:47:03;102164.27;;;-3.93;87.02
75536;BME280;64119;52.070;20.804;2022-12-18T04:49:31;102166.63;;;-3.91;86.87
75536;BME280;64119;52.070;20.804;2022-12-18T04:51:59;102165.08;;;-3.91;86.90
75536;BME280;64119;52.070;20.804;2022-12-18T04:54:26;102169.41;;;-3.92;86.45
75536;BME280;64119;52.070;20.804;2022-12-18T04:56:54;102173.84;;;-3.90;86.70
75536;BME280;64119;52.070;20.804;2022-12-18T04:59:22;102170.70;;;-3.89;86.40
75536;BME280;64119;52.070;20.804;2022-12-18T05:01:50;102180.94;;;-3.90;86.38
75536;BME280;64119;52.070;20.804;2022-12-18T05:04:17;102183.69;;;-3.95;86.46
75536;BME280;64119;52.070;20.804;2022-12-18T05:06:46;102184.83;;;-3.97;85.93
75536;BME280;64119;52.070;20.804;2022-12-18T05:09:14;102191.00;;;-4.01;86.38
75536;BME280;64119;52.070;20.804;2022-12-18T05:11:42;102193.96;;;-4.03;86.37
75536;BME280;64119;52.070;20.804;2022-12-18T05:14:12;102198.88;;;-4.05;86.40
75536;BME280;64119;52.070;20.804;2022-12-18T05:16:40;102199.97;;;-4.06;86.28
75536;BME280;64119;52.070;20.804;2022-12-18T05:19:08;102202.50;;;-4.10;86.28
75536;BME280;64119;52.070;20.804;2022-12-18T05:21:36;102205.59;;;-4.09;86.49
75536;BME280;64119;52.070;20.804;2022-12-18T05:24:04;102206.15;;;-4.11;86.34
75536;BME280;64119;52.070;20.804;2022-12-18T05:26:31;102208.40;;;-4.11;86.24
75536;BME280;64119;52.070;20.804;2022-12-18T05:28:59;102209.50;;;-4.13;86.52
75536;BME280;64119;52.070;20.804;2022-12-18T05:31:27;102213.92;;;-4.16;86.56
75536;BME280;64119;52.070;20.804;2022-12-18T05:33:55;102214.31;;;-4.17;86.65
75536;BME280;64119;52.070;20.804;2022-12-18T05:36:22;102217.66;;;-4.19;86.63
75536;BME280;64119;52.070;20.804;2022-12-18T05:38:50;102219.90;;;-4.19;86.36
75536;BME280;64119;52.070;20.804;2022-12-18T05:41:18;102219.82;;;-4.22;86.67
75536;BME280;64119;52.070;20.804;2022-12-18T05:43:46;102217.64;;;-4.24;86.95
75536;BME280;64119;52.070;20.804;2022-12-18T05:46:16;102221.23;;;-4.28;86.57
75536;BME280;64119;52.070;20.804;2022-12-18T05:48:48;102221.92;;;-4.33;86.60
75536;BME280;64119;52.070;20.804;2022-12-18T05:51:20;102226.45;;;-4.40;86.58
75536;BME280;64119;52.070;20.804;2022-12-18T05:53:48;102228.02;;;-4.40;86.65
75536;BME280;64119;52.070;20.804;2022-12-18T05:56:18;102229.41;;;-4.40;86.68
75536;BME280;64119;52.070;20.804;2022-12-18T05:58:47;102236.11;;;-4.45;86.58
75536;BME280;64119;52.070;20.804;2022-12-18T06:01:18;102238.98;;;-4.49;86.87
75536;BME280;64119;52.070;20.804;2022-12-18T06:03:46;102243.56;;;-4.52;86.72
75536;BME280;64119;52.070;20.804;2022-12-18T06:06:19;102249.49;;;-4.54;86.54
75536;BME280;64119;52.070;20.804;2022-12-18T06:08:48;102262.70;;;-4.57;86.69
75536;BME280;64119;52.070;20.804;2022-12-18T06:11:18;102268.73;;;-4.62;87.23
75536;BME280;64119;52.070;20.804;2022-12-18T06:13:46;102271.79;;;-4.60;87.18
75536;BME280;64119;52.070;20.804;2022-12-18T06:16:26;102275.49;;;-4.57;87.06
75536;BME280;64119;52.070;20.804;2022-12-18T06:19:02;102279.81;;;-4.57;87.43
75536;BME280;64119;52.070;20.804;2022-12-18T06:21:31;102294.31;;;-4.57;87.44
75536;BME280;64119;52.070;20.804;2022-12-18T06:24:00;102295.39;;;-4.58;87.15
75536;BME280;64119;52.070;20.804;2022-12-18T06:26:28;102300.22;;;-4.58;87.43
75536;BME280;64119;52.070;20.804;2022-12-18T06:28:55;102305.39;;;-4.58;87.73
75536;BME280;64119;52.070;20.804;2022-12-18T06:31:24;102314.23;;;-4.53;87.89
75536;BME280;64119;52.070;20.804;2022-12-18T06:33:52;102313.44;;;-4.50;87.94
75536;BME280;64119;52.070;20.804;2022-12-18T06:36:20;102322.62;;;-4.45;87.95
75536;BME280;64119;52.070;20.804;2022-12-18T06:38:49;102326.89;;;-4.38;88.39
75536;BME280;64119;52.070;20.804;2022-12-18T06:41:19;102332.77;;;-4.33;87.96
75536;BME280;64119;52.070;20.804;2022-12-18T06:43:47;102338.46;;;-4.32;87.83
75536;BME280;64119;52.070;20.804;2022-12-18T06:46:15;102339.28;;;-4.31;87.95
75536;BME280;64119;52.070;20.804;2022-12-18T06:48:47;102344.64;;;-4.31;87.56
75536;BME280;64119;52.070;20.804;2022-12-18T06:51:23;102344.41;;;-4.29;87.65
75536;BME280;64119;52.070;20.804;2022-12-18T06:53:51;102347.35;;;-4.29;87.52
75536;BME280;64119;52.070;20.804;2022-12-18T06:56:18;102354.44;;;-4.35;87.88
75536;BME280;64119;52.070;20.804;2022-12-18T06:58:46;102357.71;;;-4.35;87.61
75536;BME280;64119;52.070;20.804;2022-12-18T07:01:19;102350.84;;;-4.37;87.93
75536;BME280;64119;52.070;20.804;2022-12-18T07:03:51;102357.41;;;-4.37;87.86
75536;BME280;64119;52.070;20.804;2022-12-18T07:06:21;102357.48;;;-4.33;88.20
75536;BME280;64119;52.070;20.804;2022-12-18T07:08:50;102360.20;;;-4.31;88.66
75536;BME280;64119;52.070;20.804;2022-12-18T07:11:18;102360.60;;;-4.28;88.30
75536;BME280;64119;52.070;20.804;2022-12-18T07:13:47;102370.05;;;-4.21;88.72
75536;BME280;64119;52.070;20.804;2022-12-18T07:16:17;102368.89;;;-4.16;88.83
75536;BME280;64119;52.070;20.804;2022-12-18T07:18:54;102377.27;;;-4.13;88.41
75536;BME280;64119;52.070;20.804;2022-12-18T07:21:23;102382.65;;;-4.14;88.24
75536;BME280;64119;52.070;20.804;2022-12-18T07:23:51;102386.02;;;-4.18;88.35
75536;BME280;64119;52.070;20.804;2022-12-18T07:26:21;102387.42;;;-4.18;88.18
75536;BME280;64119;52.070;20.804;2022-12-18T07:28:49;102391.35;;;-4.22;87.97
75536;BME280;64119;52.070;20.804;2022-12-18T07:31:20;102395.48;;;-4.22;88.21
75536;BME280;64119;52.070;20.804;2022-12-18T07:33:55;102400.78;;;-4.20;87.74
75536;BME280;64119;52.070;20.804;2022-12-18T07:36:23;102410.73;;;-4.17;88.09
75536;BME280;64119;52.070;20.804;2022-12-18T07:38:50;102414.09;;;-4.14;88.16
75536;BME280;64119;52.070;20.804;2022-12-18T07:41:20;102419.30;;;-4.09;88.41
75536;BME280;64119;52.070;20.804;2022-12-18T07:43:48;102416.86;;;-4.03;88.81
75536;BME280;64119;52.070;20.804;2022-12-18T07:46:17;102411.17;;;-3.97;88.39
75536;BME280;64119;52.070;20.804;2022-12-18T07:48:45;102420.11;;;-3.90;88.29
75536;BME280;64119;52.070;20.804;2022-12-18T07:51:17;102419.14;;;-3.86;88.12
75536;BME280;64119;52.070;20.804;2022-12-18T07:53:46;102426.86;;;-3.85;87.65
75536;BME280;64119;52.070;20.804;2022-12-18T07:56:19;102425.77;;;-3.89;86.95
75536;BME280;64119;52.070;20.804;2022-12-18T07:58:58;102438.85;;;-3.92;86.66
75536;BME280;64119;52.070;20.804;2022-12-18T08:01:29;102440.52;;;-3.96;87.02
75536;BME280;64119;52.070;20.804;2022-12-18T08:03:57;102447.46;;;-3.97;87.19
75536;BME280;64119;52.070;20.804;2022-12-18T08:06:25;102456.20;;;-3.95;86.88
75536;BME280;64119;52.070;20.804;2022-12-18T08:08:54;102460.95;;;-3.92;86.81
75536;BME280;64119;52.070;20.804;2022-12-18T08:11:24;102462.65;;;-3.91;87.03
75536;BME280;64119;52.070;20.804;2022-12-18T08:13:53;102470.66;;;-3.87;87.51
75536;BME280;64119;52.070;20.804;2022-12-18T08:16:21;102469.74;;;-3.80;87.81
75536;BME280;64119;52.070;20.804;2022-12-18T08:19:19;102472.77;;;-3.71;87.76
75536;BME280;64119;52.070;20.804;2022-12-18T08:21:46;102473.88;;;-3.73;87.01
75536;BME280;64119;52.070;20.804;2022-12-18T08:24:14;102481.52;;;-3.75;87.02
75536;BME280;64119;52.070;20.804;2022-12-18T08:26:42;102482.29;;;-3.78;86.77
75536;BME280;64119;52.070;20.804;2022-12-18T08:29:27;102482.83;;;-3.84;86.67
75536;BME280;64119;52.070;20.804;2022-12-18T08:31:54;102489.80;;;-3.85;86.74
75536;BME280;64119;52.070;20.804;2022-12-18T08:34:22;102491.42;;;-3.82;86.56
75536;BME280;64119;52.070;20.804;2022-12-18T08:36:50;102496.07;;;-3.81;86.33
75536;BME280;64119;52.070;20.804;2022-12-18T08:39:17;102500.52;;;-3.85;86.88
75536;BME280;64119;52.070;20.804;2022-12-18T08:41:45;102504.33;;;-3.86;86.71
75536;BME280;64119;52.070;20.804;2022-12-18T08:44:37;102504.66;;;-3.79;86.50
75536;BME280;64119;52.070;20.804;2022-12-18T08:47:07;102503.48;;;-3.69;86.97
75536;BME280;64119;52.070;20.804;2022-12-18T08:49:36;102505.05;;;-3.64;86.77
75536;BME280;64119;52.070;20.804;2022-12-18T08:52:04;102505.77;;;-3.64;86.61
75536;BME280;64119;52.070;20.804;2022-12-18T08:54:31;102504.56;;;-3.59;86.16
75536;BME280;64119;52.070;20.804;2022-12-18T08:56:59;102507.02;;;-3.66;85.67
75536;BME280;64119;52.070;20.804;2022-12-18T08:59:27;102508.40;;;-3.72;85.41
75536;BME280;64119;52.070;20.804;2022-12-18T09:01:54;102512.95;;;-3.79;86.06
75536;BME280;64119;52.070;20.804;2022-12-18T09:04:22;102518.41;;;-3.77;85.91
75536;BME280;64119;52.070;20.804;2022-12-18T09:06:50;102518.28;;;-3.67;85.72
75536;BME280;64119;52.070;20.804;2022-12-18T09:09:20;102523.79;;;-3.55;85.50
75536;BME280;64119;52.070;20.804;2022-12-18T09:11:48;102528.54;;;-3.46;85.63
75536;BME280;64119;52.070;20.804;2022-12-18T09:14:16;102531.50;;;-3.41;85.68
75536;BME280;64119;52.070;20.804;2022-12-18T09:16:43;102531.70;;;-3.42;85.29
75536;BME280;64119;52.070;20.804;2022-12-18T09:19:13;102536.13;;;-3.45;85.46
75536;BME280;64119;52.070;20.804;2022-12-18T09:21:40;102537.87;;;-3.45;85.58
75536;BME280;64119;52.070;20.804;2022-12-18T09:24:15;102539.88;;;-3.49;85.36
75536;BME280;64119;52.070;20.804;2022-12-18T09:26:43;102536.88;;;-3.47;85.60
75536;BME280;64119;52.070;20.804;2022-12-18T09:29:15;102542.45;;;-3.54;85.03
75536;BME280;64119;52.070;20.804;2022-12-18T09:31:45;102544.30;;;-3.52;85.30
75536;BME280;64119;52.070;20.804;2022-12-18T09:34:13;102544.69;;;-3.54;85.47
75536;BME280;64119;52.070;20.804;2022-12-18T09:36:40;102541.64;;;-3.55;85.45
75536;BME280;64119;52.070;20.804;2022-12-18T09:39:10;102546.29;;;-3.55;85.36
75536;BME280;64119;52.070;20.804;2022-12-18T09:41:52;102549.55;;;-3.49;85.48
75536;BME280;64119;52.070;20.804;2022-12-18T09:44:23;102549.40;;;-3.38;85.65
75536;BME280;64119;52.070;20.804;2022-12-18T09:49:23;102545.66;;;-3.13;84.81
75536;BME280;64119;52.070;20.804;2022-12-18T09:51:57;102546.73;;;-3.13;84.78
75536;BME280;64119;52.070;20.804;2022-12-18T09:54:41;102552.39;;;-3.06;84.87
75536;BME280;64119;52.070;20.804;2022-12-18T09:57:15;102555.04;;;-3.02;84.27
75536;BME280;64119;52.070;20.804;2022-12-18T09:59:49;102554.44;;;-2.95;84.42
75536;BME280;64119;52.070;20.804;2022-12-18T10:02:23;102554.88;;;-2.82;84.56
75536;BME280;64119;52.070;20.804;2022-12-18T10:05:03;102556.30;;;-2.72;84.23
75536;BME280;64119;52.070;20.804;2022-12-18T10:10:52;102561.63;;;-2.55;84.04
75536;BME280;64119;52.070;20.804;2022-12-18T10:21:20;102563.64;;;-2.38;83.99
75536;BME280;64119;52.070;20.804;2022-12-18T10:24:12;102557.16;;;-2.31;83.75
75536;BME280;64119;52.070;20.804;2022-12-18T10:26:43;102552.98;;;-2.25;83.49
75536;BME280;64119;52.070;20.804;2022-12-18T10:29:12;102547.67;;;-2.18;84.15
75536;BME280;64119;52.070;20.804;2022-12-18T10:31:41;102546.49;;;-2.09;83.88
75536;BME280;64119;52.070;20.804;2022-12-18T10:34:12;102550.27;;;-2.03;83.77
75536;BME280;64119;52.070;20.804;2022-12-18T10:36:40;102548.84;;;-1.92;84.11
75536;BME280;64119;52.070;20.804;2022-12-18T10:39:18;102553.95;;;-1.76;84.11
75536;BME280;64119;52.070;20.804;2022-12-18T10:41:46;102557.42;;;-1.62;83.93
75536;BME280;64119;52.070;20.804;2022-12-18T10:44:22;102558.95;;;-1.52;83.57
75536;BME280;64119;52.070;20.804;2022-12-18T10:46:55;102553.01;;;-1.46;82.46
75536;BME280;64119;52.070;20.804;2022-12-18T10:49:35;102553.15;;;-1.36;83.37
75536;BME280;64119;52.070;20.804;2022-12-18T10:54:34;102548.52;;;-1.15;82.36
75536;BME280;64119;52.070;20.804;2022-12-18T10:57:35;102550.48;;;-1.12;81.75
75536;BME280;64119;52.070;20.804;2022-12-18T11:00:36;102551.48;;;-1.16;81.24
75536;BME280;64119;52.070;20.804;2022-12-18T11:06:10;102561.34;;;-1.42;82.01
75536;BME280;64119;52.070;20.804;2022-12-18T11:14:19;102554.82;;;-1.53;82.44
75536;BME280;64119;52.070;20.804;2022-12-18T11:16:50;102550.48;;;-1.57;82.35
75536;BME280;64119;52.070;20.804;2022-12-18T11:19:39;102555.50;;;-1.66;82.40
75536;BME280;64119;52.070;20.804;2022-12-18T11:22:20;102558.92;;;-1.79;82.37
75536;BME280;64119;52.070;20.804;2022-12-18T11:28:29;102566.93;;;-1.89;82.89
75536;BME280;64119;52.070;20.804;2022-12-18T11:31:22;102566.07;;;-1.84;82.22
75536;BME280;64119;52.070;20.804;2022-12-18T11:34:22;102565.70;;;-1.89;82.33
75536;BME280;64119;52.070;20.804;2022-12-18T11:36:58;102567.84;;;-1.86;82.00
75536;BME280;64119;52.070;20.804;2022-12-18T11:42:27;102564.51;;;-1.89;81.98
75536;BME280;64119;52.070;20.804;2022-12-18T11:45:16;102566.41;;;-1.94;81.61
75536;BME280;64119;52.070;20.804;2022-12-18T11:53:12;102559.00;;;-2.10;82.23
75536;BME280;64119;52.070;20.804;2022-12-18T11:58:18;102564.25;;;-1.96;82.52
75536;BME280;64119;52.070;20.804;2022-12-18T12:09:43;102580.14;;;-2.14;81.91
75536;BME280;64119;52.070;20.804;2022-12-18T12:18:26;102585.86;;;-2.14;82.38
75536;BME280;64119;52.070;20.804;2022-12-18T12:23:41;102581.81;;;-2.17;82.25
75536;BME280;64119;52.070;20.804;2022-12-18T12:32:27;102589.84;;;-2.29;82.83
75536;BME280;64119;52.070;20.804;2022-12-18T12:37:19;102593.92;;;-2.27;82.58
75536;BME280;64119;52.070;20.804;2022-12-18T12:39:50;102604.00;;;-2.18;82.99
75536;BME280;64119;52.070;20.804;2022-12-18T12:48:42;102608.70;;;-2.13;82.78
75536;BME280;64119;52.070;20.804;2022-12-18T12:51:28;102619.63;;;-2.08;83.14
75536;BME280;64119;52.070;20.804;2022-12-18T12:53:58;102625.06;;;-2.00;82.84
75536;BME280;64119;52.070;20.804;2022-12-18T12:56:39;102634.52;;;-1.98;82.85
75536;BME280;64119;52.070;20.804;2022-12-18T12:59:37;102641.73;;;-2.01;82.51
75536;BME280;64119;52.070;20.804;2022-12-18T13:04:50;102645.61;;;-2.23;82.44
75536;BME280;64119;52.070;20.804;2022-12-18T13:07:29;102648.67;;;-2.32;82.95
75536;BME280;64119;52.070;20.804;2022-12-18T13:15:47;102666.45;;;-2.25;83.19
75536;BME280;64119;52.070;20.804;2022-12-18T13:18:24;102662.16;;;-2.26;83.33
75536;BME280;64119;52.070;20.804;2022-12-18T13:23:33;102661.32;;;-2.32;83.25
75536;BME280;64119;52.070;20.804;2022-12-18T13:34:16;102668.98;;;-2.28;83.09
75536;BME280;64119;52.070;20.804;2022-12-18T13:36:55;102663.11;;;-2.33;82.73
75536;BME280;64119;52.070;20.804;2022-12-18T13:44:39;102680.98;;;-2.44;82.69
75536;BME280;64119;52.070;20.804;2022-12-18T13:47:26;102678.11;;;-2.47;82.89
75536;BME280;64119;52.070;20.804;2022-12-18T13:49:56;102671.30;;;-2.51;82.75
75536;BME280;64119;52.070;20.804;2022-12-18T13:52:26;102673.73;;;-2.61;82.90
75536;BME280;64119;52.070;20.804;2022-12-18T13:54:59;102680.38;;;-2.70;82.56
75536;BME280;64119;52.070;20.804;2022-12-18T13:57:31;102686.66;;;-2.71;82.79
75536;BME280;64119;52.070;20.804;2022-12-18T14:00:32;102690.08;;;-2.75;83.15
75536;BME280;64119;52.070;20.804;2022-12-18T14:03:00;102685.67;;;-2.85;83.15
75536;BME280;64119;52.070;20.804;2022-12-18T14:05:34;102685.25;;;-2.87;83.86
75536;BME280;64119;52.070;20.804;2022-12-18T14:08:08;102688.01;;;-2.87;84.16
75536;BME280;64119;52.070;20.804;2022-12-18T14:10:45;102695.88;;;-2.84;83.71
75536;BME280;64119;52.070;20.804;2022-12-18T14:13:35;102705.54;;;-2.83;83.80
75536;BME280;64119;52.070;20.804;2022-12-18T14:16:05;102706.34;;;-2.81;83.80
75536;BME280;64119;52.070;20.804;2022-12-18T14:18:54;102703.75;;;-2.81;84.05
75536;BME280;64119;52.070;20.804;2022-12-18T14:21:31;102704.48;;;-2.88;83.95
75536;BME280;64119;52.070;20.804;2022-12-18T14:24:16;102701.95;;;-2.90;83.60
75536;BME280;64119;52.070;20.804;2022-12-18T14:26:47;102703.66;;;-2.95;83.63
75536;BME280;64119;52.070;20.804;2022-12-18T14:29:23;102706.07;;;-3.00;83.47
75536;BME280;64119;52.070;20.804;2022-12-18T14:34:36;102709.23;;;-3.14;83.48
75536;BME280;64119;52.070;20.804;2022-12-18T14:37:04;102708.61;;;-3.16;83.18
75536;BME280;64119;52.070;20.804;2022-12-18T14:39:32;102711.54;;;-3.21;83.17
75536;BME280;64119;52.070;20.804;2022-12-18T14:41:59;102712.52;;;-3.32;83.74
75536;BME280;64119;52.070;20.804;2022-12-18T14:44:28;102718.34;;;-3.35;83.67
75536;BME280;64119;52.070;20.804;2022-12-18T14:47:24;102720.22;;;-3.35;84.33
75536;BME280;64119;52.070;20.804;2022-12-18T14:49:52;102720.71;;;-3.34;84.32
75536;BME280;64119;52.070;20.804;2022-12-18T14:52:28;102715.16;;;-3.34;84.31
75536;BME280;64119;52.070;20.804;2022-12-18T14:54:58;102718.88;;;-3.30;84.56
75536;BME280;64119;52.070;20.804;2022-12-18T14:57:34;102722.25;;;-3.27;84.37
75536;BME280;64119;52.070;20.804;2022-12-18T15:00:15;102722.98;;;-3.28;84.33
75536;BME280;64119;52.070;20.804;2022-12-18T15:02:45;102723.34;;;-3.29;84.09
75536;BME280;64119;52.070;20.804;2022-12-18T15:05:19;102732.10;;;-3.27;84.19
75536;BME280;64119;52.070;20.804;2022-12-18T15:07:50;102734.70;;;-3.21;84.01
75536;BME280;64119;52.070;20.804;2022-12-18T15:10:23;102740.70;;;-3.18;83.96